sensor_id;sensor_type;location;lat;lon;timestamp;pressure;altitude;pressure_sealevel;temperature;humidity
10652;BME280;5374;42.742;23.266;2023-01-31T00:00:44;95022.56;;;1.41;100.00
10652;BME280;5374;42.742;23.266;2023-01-31T00:03:31;95026.41;;;1.45;100.00
10652;BME280;5374;42.742;23.266;2023-01-31T00:06:21;95024.19;;;1.48;100.00
10652;BME280;5374;42.742;23.266;2023-01-31T00:09:10;95024.19;;;1.42;100.00
10652;BME280;5374;42.742;23.266;2023-01-31T00:11:57;95013.94;;;1.47;100.00
10652;BME280;5374;42.742;23.266;2023-01-31T00:14:44;95017.94;;;1.43;100.00
10652;BME280;5374;42.742;23.266;2023-01-31T00:17:33;95010.09;;;1.43;100.00
10652;BME280;5374;42.742;23.266;2023-01-31T00:20:20;95020.56;;;1.49;100.00
10652;BME280;5374;42.742;23.266;2023-01-31T00:23:07;95000.44;;;1.36;100.00
10652;BME280;5374;42.742;23.266;2023-01-31T00:25:55;95013.72;;;1.42;100.00
10652;BME280;5374;42.742;23.266;2023-01-31T00:28:53;95015.75;;;1.40;100.00
10652;BME280;5374;42.742;23.266;2023-01-31T00:31:41;95010.34;;;1.34;100.00
10652;BME280;5374;42.742;23.266;2023-01-31T00:34:30;95012.16;;;1.34;100.00
10652;BME280;5374;42.742;23.266;2023-01-31T00:37:19;94975.56;;;1.01;100.00
10652;BME280;5374;42.742;23.266;2023-01-31T00:40:08;95018.56;;;1.38;100.00
10652;BME280;5374;42.742;23.266;2023-01-31T00:42:55;95023.38;;;1.41;100.00
10652;BME280;5374;42.742;23.266;2023-01-31T00:45:42;94971.53;;;1.12;100.00
10652;BME280;5374;42.742;23.266;2023-01-31T00:48:29;95015.94;;;1.45;100.00
10652;BME280;5374;42.742;23.266;2023-01-31T00:51:19;95012.72;;;1.43;100.00
10652;BME280;5374;42.742;23.266;2023-01-31T00:54:06;94987.41;;;1.30;100.00
10652;BME280;5374;42.742;23.266;2023-01-31T00:56:54;95037.28;;;1.48;100.00
10652;BME280;5374;42.742;23.266;2023-01-31T00:59:41;94974.31;;;1.23;100.00
10652;BME280;5374;42.742;23.266;2023-01-31T01:02:28;95024.59;;;1.45;100.00
10652;BME280;5374;42.742;23.266;2023-01-31T01:05:15;95032.03;;;1.55;100.00
10652;BME280;5374;42.742;23.266;2023-01-31T01:08:04;95026.19;;;1.53;100.00
10652;BME280;5374;42.742;23.266;2023-01-31T01:10:51;95028.81;;;1.53;100.00
10652;BME280;5374;42.742;23.266;2023-01-31T01:13:39;95020.16;;;1.52;100.00
10652;BME280;5374;42.742;23.266;2023-01-31T01:16:32;95014.69;;;1.60;100.00
10652;BME280;5374;42.742;23.266;2023-01-31T01:19:19;95015.34;;;1.56;100.00
10652;BME280;5374;42.742;23.266;2023-01-31T01:22:07;95013.88;;;1.60;100.00
10652;BME280;5374;42.742;23.266;2023-01-31T01:24:55;95004.03;;;1.62;100.00
10652;BME280;5374;42.742;23.266;2023-01-31T01:27:42;95002.22;;;1.69;100.00
10652;BME280;5374;42.742;23.266;2023-01-31T01:30:30;94994.16;;;1.64;100.00
10652;BME280;5374;42.742;23.266;2023-01-31T01:33:17;95010.88;;;1.63;100.00
10652;BME280;5374;42.742;23.266;2023-01-31T01:36:06;95004.44;;;1.65;100.00
10652;BME280;5374;42.742;23.266;2023-01-31T01:38:57;95009.25;;;1.68;100.00
10652;BME280;5374;42.742;23.266;2023-01-31T01:41:46;95001.03;;;1.52;100.00
10652;BME280;5374;42.742;23.266;2023-01-31T01:44:47;94995.81;;;1.52;100.00
10652;BME280;5374;42.742;23.266;2023-01-31T01:47:38;95018.75;;;1.56;100.00
10652;BME280;5374;42.742;23.266;2023-01-31T01:50:28;95019.72;;;1.62;100.00
10652;BME280;5374;42.742;23.266;2023-01-31T01:53:19;95012.09;;;1.60;100.00
10652;BME280;5374;42.742;23.266;2023-01-31T01:56:10;95020.38;;;1.51;100.00
10652;BME280;5374;42.742;23.266;2023-01-31T01:59:04;95013.31;;;1.45;100.00
10652;BME280;5374;42.742;23.266;2023-01-31T02:01:54;95006.09;;;1.33;100.00
10652;BME280;5374;42.742;23.266;2023-01-31T02:04:43;95024.00;;;1.36;100.00
10652;BME280;5374;42.742;23.266;2023-01-31T02:07:32;95034.06;;;1.33;100.00
10652;BME280;5374;42.742;23.266;2023-01-31T02:10:23;95033.28;;;1.32;100.00
10652;BME280;5374;42.742;23.266;2023-01-31T02:13:13;95022.59;;;1.27;100.00
10652;BME280;5374;42.742;23.266;2023-01-31T02:16:02;95014.75;;;1.27;100.00
10652;BME280;5374;42.742;23.266;2023-01-31T02:18:50;95011.53;;;1.19;100.00
10652;BME280;5374;42.742;23.266;2023-01-31T02:22:12;95019.19;;;1.20;100.00
10652;BME280;5374;42.742;23.266;2023-01-31T02:25:26;95020.78;;;1.21;100.00
10652;BME280;5374;42.742;23.266;2023-01-31T02:28:39;95022.41;;;1.09;100.00
10652;BME280;5374;42.742;23.266;2023-01-31T02:31:54;95006.31;;;0.86;100.00
10652;BME280;5374;42.742;23.266;2023-01-31T02:34:52;95039.88;;;0.95;100.00
10652;BME280;5374;42.742;23.266;2023-01-31T02:37:51;95020.38;;;0.91;100.00
10652;BME280;5374;42.742;23.266;2023-01-31T02:40:47;95037.84;;;0.91;100.00
10652;BME280;5374;42.742;23.266;2023-01-31T02:43:42;95022.78;;;0.93;100.00
10652;BME280;5374;42.742;23.266;2023-01-31T02:46:50;95019.78;;;0.83;100.00
10652;BME280;5374;42.742;23.266;2023-01-31T02:49:43;95040.06;;;0.94;100.00
10652;BME280;5374;42.742;23.266;2023-01-31T02:52:39;95055.34;;;0.84;100.00
10652;BME280;5374;42.742;23.266;2023-01-31T02:55:32;95054.94;;;0.80;100.00
10652;BME280;5374;42.742;23.266;2023-01-31T02:58:39;95041.88;;;0.67;100.00
10652;BME280;5374;42.742;23.266;2023-01-31T03:01:30;95059.75;;;0.77;100.00
10652;BME280;5374;42.742;23.266;2023-01-31T03:04:18;95074.22;;;0.73;100.00
10652;BME280;5374;42.742;23.266;2023-01-31T03:07:09;95074.44;;;0.78;100.00
10652;BME280;5374;42.742;23.266;2023-01-31T03:10:11;95070.41;;;0.75;100.00
10652;BME280;5374;42.742;23.266;2023-01-31T03:13:11;95086.09;;;0.82;100.00
10652;BME280;5374;42.742;23.266;2023-01-31T03:16:12;95101.59;;;0.83;100.00
10652;BME280;5374;42.742;23.266;2023-01-31T03:19:20;95098.38;;;0.88;100.00
10652;BME280;5374;42.742;23.266;2023-01-31T03:22:12;95107.22;;;0.87;100.00
10652;BME280;5374;42.742;23.266;2023-01-31T03:25:06;95107.84;;;0.89;100.00
10652;BME280;5374;42.742;23.266;2023-01-31T03:27:58;95112.44;;;0.80;100.00
10652;BME280;5374;42.742;23.266;2023-01-31T03:30:51;95111.63;;;0.80;100.00
10652;BME280;5374;42.742;23.266;2023-01-31T03:33:44;95095.50;;;0.69;100.00
10652;BME280;5374;42.742;23.266;2023-01-31T03:36:37;95101.56;;;0.77;100.00
10652;BME280;5374;42.742;23.266;2023-01-31T03:39:35;95117.25;;;0.77;100.00
10652;BME280;5374;42.742;23.266;2023-01-31T03:42:29;95108.75;;;0.61;100.00
10652;BME280;5374;42.742;23.266;2023-01-31T03:45:20;95116.81;;;0.73;100.00
10652;BME280;5374;42.742;23.266;2023-01-31T03:48:11;95117.81;;;0.72;100.00
10652;BME280;5374;42.742;23.266;2023-01-31T03:51:05;95119.03;;;0.63;100.00
10652;BME280;5374;42.742;23.266;2023-01-31T03:53:58;95130.09;;;0.72;100.00
10652;BME280;5374;42.742;23.266;2023-01-31T03:56:52;95121.63;;;0.69;100.00
10652;BME280;5374;42.742;23.266;2023-01-31T03:59:43;95109.72;;;0.54;100.00
10652;BME280;5374;42.742;23.266;2023-01-31T04:02:34;95123.25;;;0.71;100.00
10652;BME280;5374;42.742;23.266;2023-01-31T04:05:23;95117.81;;;0.65;100.00
10652;BME280;5374;42.742;23.266;2023-01-31T04:08:17;95118.41;;;0.61;100.00
10652;BME280;5374;42.742;23.266;2023-01-31T04:11:05;95106.50;;;0.45;100.00
10652;BME280;5374;42.742;23.266;2023-01-31T04:13:54;95148.38;;;0.72;100.00
10652;BME280;5374;42.742;23.266;2023-01-31T04:16:43;95147.19;;;0.67;100.00
10652;BME280;5374;42.742;23.266;2023-01-31T04:19:30;95148.00;;;0.75;100.00
10652;BME280;5374;42.742;23.266;2023-01-31T04:22:17;95150.44;;;0.83;100.00
10652;BME280;5374;42.742;23.266;2023-01-31T04:25:05;95146.22;;;0.82;100.00
10652;BME280;5374;42.742;23.266;2023-01-31T04:27:53;95114.38;;;0.58;100.00
10652;BME280;5374;42.742;23.266;2023-01-31T04:30:40;95143.81;;;0.87;100.00
10652;BME280;5374;42.742;23.266;2023-01-31T04:33:29;95135.19;;;0.86;100.00
10652;BME280;5374;42.742;23.266;2023-01-31T04:36:16;95145.44;;;0.94;100.00
10652;BME280;5374;42.742;23.266;2023-01-31T04:39:03;95112.59;;;0.72;100.00
10652;BME280;5374;42.742;23.266;2023-01-31T04:41:50;95152.47;;;0.94;100.00
10652;BME280;5374;42.742;23.266;2023-01-31T04:44:38;95155.06;;;0.94;100.00
10652;BME280;5374;42.742;23.266;2023-01-31T04:47:25;95155.88;;;0.94;100.00
10652;BME280;5374;42.742;23.266;2023-01-31T04:50:14;95164.94;;;0.98;100.00
10652;BME280;5374;42.742;23.266;2023-01-31T04:53:01;95135.53;;;0.77;100.00
10652;BME280;5374;42.742;23.266;2023-01-31T04:55:52;95153.88;;;0.90;100.00
10652;BME280;5374;42.742;23.266;2023-01-31T04:58:40;95161.72;;;0.96;100.00
10652;BME280;5374;42.742;23.266;2023-01-31T05:01:28;95148.44;;;0.85;100.00
10652;BME280;5374;42.742;23.266;2023-01-31T05:04:15;95157.50;;;0.89;100.00
10652;BME280;5374;42.742;23.266;2023-01-31T05:07:04;95164.38;;;1.03;100.00
10652;BME280;5374;42.742;23.266;2023-01-31T05:09:51;95167.59;;;1.05;100.00
10652;BME280;5374;42.742;23.266;2023-01-31T05:12:38;95179.03;;;1.04;100.00
10652;BME280;5374;42.742;23.266;2023-01-31T05:15:25;95175.59;;;0.97;100.00
10652;BME280;5374;42.742;23.266;2023-01-31T05:18:13;95178.03;;;1.05;100.00
10652;BME280;5374;42.742;23.266;2023-01-31T05:21:00;95175.81;;;1.02;100.00
10652;BME280;5374;42.742;23.266;2023-01-31T05:23:49;95185.09;;;1.11;100.00
10652;BME280;5374;42.742;23.266;2023-01-31T05:26:36;95181.69;;;1.11;100.00
10652;BME280;5374;42.742;23.266;2023-01-31T05:29:24;95170.81;;;1.07;100.00
10652;BME280;5374;42.742;23.266;2023-01-31T05:32:12;95171.41;;;1.02;100.00
10652;BME280;5374;42.742;23.266;2023-01-31T05:34:59;95036.72;;;0.26;100.00
10652;BME280;5374;42.742;23.266;2023-01-31T05:37:46;95177.66;;;1.15;100.00
10652;BME280;5374;42.742;23.266;2023-01-31T05:40:35;95174.81;;;1.03;100.00
10652;BME280;5374;42.742;23.266;2023-01-31T05:43:22;95188.91;;;1.15;100.00
10652;BME280;5374;42.742;23.266;2023-01-31T05:46:09;95185.91;;;1.18;100.00
10652;BME280;5374;42.742;23.266;2023-01-31T05:48:56;95192.72;;;1.06;100.00
10652;BME280;5374;42.742;23.266;2023-01-31T05:51:43;95196.56;;;1.17;100.00
10652;BME280;5374;42.742;23.266;2023-01-31T05:54:31;95205.59;;;1.14;100.00
10652;BME280;5374;42.742;23.266;2023-01-31T05:57:20;95202.63;;;1.24;100.00
10652;BME280;5374;42.742;23.266;2023-01-31T06:00:08;95207.06;;;1.30;100.00
10652;BME280;5374;42.742;23.266;2023-01-31T06:02:57;95200.66;;;1.32;100.00
10652;BME280;5374;42.742;23.266;2023-01-31T06:05:44;95194.19;;;1.28;100.00
10652;BME280;5374;42.742;23.266;2023-01-31T06:08:31;95184.13;;;1.25;100.00
10652;BME280;5374;42.742;23.266;2023-01-31T06:11:19;95212.75;;;1.47;100.00
10652;BME280;5374;42.742;23.266;2023-01-31T06:14:08;95197.03;;;1.47;100.00
10652;BME280;5374;42.742;23.266;2023-01-31T06:16:55;95177.47;;;1.23;100.00
10652;BME280;5374;42.742;23.266;2023-01-31T06:19:42;95186.16;;;1.43;100.00
10652;BME280;5374;42.742;23.266;2023-01-31T06:22:29;95206.72;;;1.59;100.00
10652;BME280;5374;42.742;23.266;2023-01-31T06:25:17;95195.25;;;1.54;100.00
10652;BME280;5374;42.742;23.266;2023-01-31T06:28:04;95172.50;;;1.54;100.00
10652;BME280;5374;42.742;23.266;2023-01-31T06:30:53;95214.59;;;1.86;100.00
10652;BME280;5374;42.742;23.266;2023-01-31T06:33:45;95220.81;;;1.85;100.00
10652;BME280;5374;42.742;23.266;2023-01-31T06:36:35;95215.00;;;1.89;100.00
10652;BME280;5374;42.742;23.266;2023-01-31T06:39:35;95211.78;;;1.87;100.00
10652;BME280;5374;42.742;23.266;2023-01-31T06:42:23;95207.56;;;1.80;100.00
10652;BME280;5374;42.742;23.266;2023-01-31T06:45:10;95213.38;;;1.88;100.00
10652;BME280;5374;42.742;23.266;2023-01-31T06:48:17;95174.09;;;1.62;100.00
10652;BME280;5374;42.742;23.266;2023-01-31T06:51:05;95215.41;;;1.99;100.00
10652;BME280;5374;42.742;23.266;2023-01-31T06:53:52;95184.19;;;1.85;100.00
10652;BME280;5374;42.742;23.266;2023-01-31T06:56:40;95206.13;;;2.10;100.00
10652;BME280;5374;42.742;23.266;2023-01-31T06:59:28;95212.97;;;2.24;100.00
10652;BME280;5374;42.742;23.266;2023-01-31T07:02:15;95225.66;;;2.34;100.00
10652;BME280;5374;42.742;23.266;2023-01-31T07:05:05;95204.28;;;2.37;100.00
10652;BME280;5374;42.742;23.266;2023-01-31T07:07:52;95230.44;;;2.57;100.00
10652;BME280;5374;42.742;23.266;2023-01-31T07:10:39;95216.31;;;2.64;100.00
10652;BME280;5374;42.742;23.266;2023-01-31T07:13:27;95222.53;;;2.77;100.00
10652;BME280;5374;42.742;23.266;2023-01-31T07:16:14;95200.41;;;2.53;100.00
10652;BME280;5374;42.742;23.266;2023-01-31T07:19:03;95223.56;;;2.69;100.00
10652;BME280;5374;42.742;23.266;2023-01-31T07:21:51;95176.06;;;2.39;100.00
10652;BME280;5374;42.742;23.266;2023-01-31T07:24:38;95215.16;;;2.47;100.00
10652;BME280;5374;42.742;23.266;2023-01-31T07:27:26;95226.41;;;2.61;100.00
10652;BME280;5374;42.742;23.266;2023-01-31T07:30:13;95190.38;;;2.36;100.00
10652;BME280;5374;42.742;23.266;2023-01-31T07:33:01;95225.38;;;2.68;100.00
10652;BME280;5374;42.742;23.266;2023-01-31T07:35:48;95222.34;;;2.71;100.00
10652;BME280;5374;42.742;23.266;2023-01-31T07:38:37;95224.75;;;2.80;100.00
10652;BME280;5374;42.742;23.266;2023-01-31T07:41:24;95223.53;;;2.75;100.00
10652;BME280;5374;42.742;23.266;2023-01-31T07:44:11;95236.22;;;2.79;100.00
10652;BME280;5374;42.742;23.266;2023-01-31T07:46:58;95234.00;;;2.82;100.00
10652;BME280;5374;42.742;23.266;2023-01-31T07:49:46;95237.25;;;2.78;100.00
10652;BME280;5374;42.742;23.266;2023-01-31T07:52:35;95221.56;;;2.71;100.00
10652;BME280;5374;42.742;23.266;2023-01-31T07:55:23;95211.28;;;2.63;100.00
10652;BME280;5374;42.742;23.266;2023-01-31T07:58:10;95242.28;;;2.72;100.00
10652;BME280;5374;42.742;23.266;2023-01-31T08:00:57;95241.28;;;2.80;100.00
10652;BME280;5374;42.742;23.266;2023-01-31T08:04:02;95228.63;;;2.70;100.00
10652;BME280;5374;42.742;23.266;2023-01-31T08:06:52;95236.63;;;2.89;100.00
10652;BME280;5374;42.742;23.266;2023-01-31T08:09:39;95235.56;;;3.03;100.00
10652;BME280;5374;42.742;23.266;2023-01-31T08:12:29;95235.06;;;3.19;100.00
10652;BME280;5374;42.742;23.266;2023-01-31T08:15:16;95245.88;;;3.42;100.00
10652;BME280;5374;42.742;23.266;2023-01-31T08:18:04;95240.38;;;3.51;100.00
10652;BME280;5374;42.742;23.266;2023-01-31T08:20:51;95229.97;;;3.69;100.00
10652;BME280;5374;42.742;23.266;2023-01-31T08:23:38;95229.69;;;4.08;100.00
10652;BME280;5374;42.742;23.266;2023-01-31T08:26:25;95225.72;;;4.49;100.00
10652;BME280;5374;42.742;23.266;2023-01-31T08:29:14;95233.63;;;4.67;100.00
10652;BME280;5374;42.742;23.266;2023-01-31T08:32:01;95236.91;;;4.63;100.00
10652;BME280;5374;42.742;23.266;2023-01-31T08:34:48;95232.81;;;4.67;100.00
10652;BME280;5374;42.742;23.266;2023-01-31T08:37:36;95228.78;;;4.64;100.00
10652;BME280;5374;42.742;23.266;2023-01-31T08:40:23;95225.41;;;4.57;100.00
10652;BME280;5374;42.742;23.266;2023-01-31T08:43:11;95216.25;;;4.66;100.00
10652;BME280;5374;42.742;23.266;2023-01-31T08:45:59;95223.38;;;4.77;100.00
10652;BME280;5374;42.742;23.266;2023-01-31T08:48:46;95215.38;;;4.72;100.00
10652;BME280;5374;42.742;23.266;2023-01-31T08:51:33;95223.75;;;4.81;100.00
10652;BME280;5374;42.742;23.266;2023-01-31T08:54:23;95228.97;;;4.88;100.00
10652;BME280;5374;42.742;23.266;2023-01-31T08:57:10;95231.31;;;4.96;100.00
10652;BME280;5374;42.742;23.266;2023-01-31T08:59:57;95232.38;;;5.25;100.00
10652;BME280;5374;42.742;23.266;2023-01-31T09:02:51;95215.41;;;5.39;100.00
10652;BME280;5374;42.742;23.266;2023-01-31T09:05:38;95231.19;;;5.69;100.00
10652;BME280;5374;42.742;23.266;2023-01-31T09:08:26;95231.44;;;5.79;100.00
10652;BME280;5374;42.742;23.266;2023-01-31T09:11:14;95222.34;;;5.93;100.00
10652;BME280;5374;42.742;23.266;2023-01-31T09:14:03;95217.91;;;6.05;100.00
10652;BME280;5374;42.742;23.266;2023-01-31T09:16:50;95226.06;;;6.15;100.00
10652;BME280;5374;42.742;23.266;2023-01-31T09:19:39;95220.47;;;6.35;100.00
10652;BME280;5374;42.742;23.266;2023-01-31T09:22:29;95221.75;;;6.44;100.00
10652;BME280;5374;42.742;23.266;2023-01-31T09:25:16;95214.88;;;6.55;100.00
10652;BME280;5374;42.742;23.266;2023-01-31T09:28:04;95203.63;;;6.71;100.00
10652;BME280;5374;42.742;23.266;2023-01-31T09:30:52;95212.22;;;6.67;100.00
10652;BME280;5374;42.742;23.266;2023-01-31T09:33:40;95200.16;;;6.59;100.00
10652;BME280;5374;42.742;23.266;2023-01-31T09:36:28;95193.53;;;6.45;100.00
10652;BME280;5374;42.742;23.266;2023-01-31T09:39:16;95187.56;;;6.38;100.00
10652;BME280;5374;42.742;23.266;2023-01-31T09:42:12;95186.53;;;6.15;100.00
10652;BME280;5374;42.742;23.266;2023-01-31T09:45:06;95188.38;;;6.38;100.00
10652;BME280;5374;42.742;23.266;2023-01-31T09:47:58;95183.91;;;6.50;100.00
10652;BME280;5374;42.742;23.266;2023-01-31T09:50:49;95186.09;;;6.54;100.00
10652;BME280;5374;42.742;23.266;2023-01-31T09:53:42;95181.44;;;6.84;100.00
10652;BME280;5374;42.742;23.266;2023-01-31T09:56:34;95189.34;;;6.96;100.00
10652;BME280;5374;42.742;23.266;2023-01-31T09:59:31;95191.09;;;6.78;100.00
10652;BME280;5374;42.742;23.266;2023-01-31T10:02:45;95168.97;;;6.56;100.00
10652;BME280;5374;42.742;23.266;2023-01-31T10:05:43;95165.88;;;6.71;100.00
10652;BME280;5374;42.742;23.266;2023-01-31T10:08:39;95148.16;;;6.83;100.00
10652;BME280;5374;42.742;23.266;2023-01-31T10:11:34;95168.75;;;7.21;100.00
10652;BME280;5374;42.742;23.266;2023-01-31T10:14:30;95165.94;;;7.28;100.00
10652;BME280;5374;42.742;23.266;2023-01-31T10:17:21;95158.63;;;7.46;100.00
10652;BME280;5374;42.742;23.266;2023-01-31T10:20:17;95164.03;;;7.68;100.00
10652;BME280;5374;42.742;23.266;2023-01-31T10:23:11;95164.03;;;7.68;100.00
10652;BME280;5374;42.742;23.266;2023-01-31T10:26:02;95152.72;;;7.39;100.00
10652;BME280;5374;42.742;23.266;2023-01-31T10:28:57;95163.91;;;7.46;100.00
10652;BME280;5374;42.742;23.266;2023-01-31T10:31:51;95163.81;;;7.13;100.00
10652;BME280;5374;42.742;23.266;2023-01-31T10:34:42;95160.09;;;6.85;100.00
10652;BME280;5374;42.742;23.266;2023-01-31T10:37:36;95156.94;;;6.72;100.00
10652;BME280;5374;42.742;23.266;2023-01-31T10:40:29;95160.09;;;6.85;100.00
10652;BME280;5374;42.742;23.266;2023-01-31T10:43:21;95163.44;;;6.93;100.00
10652;BME280;5374;42.742;23.266;2023-01-31T10:46:15;95152.06;;;6.92;100.00
10652;BME280;5374;42.742;23.266;2023-01-31T10:49:02;95152.78;;;7.16;100.00
10652;BME280;5374;42.742;23.266;2023-01-31T10:52:10;95154.31;;;7.40;100.00
10652;BME280;5374;42.742;23.266;2023-01-31T10:55:14;95151.88;;;7.22;100.00
10652;BME280;5374;42.742;23.266;2023-01-31T10:58:09;95129.88;;;7.05;100.00
10652;BME280;5374;42.742;23.266;2023-01-31T11:00:59;95153.31;;;6.90;100.00
10652;BME280;5374;42.742;23.266;2023-01-31T11:03:50;95164.34;;;6.86;100.00
10652;BME280;5374;42.742;23.266;2023-01-31T11:06:37;95152.91;;;6.58;100.00
10652;BME280;5374;42.742;23.266;2023-01-31T11:09:28;95162.91;;;6.56;100.00
10652;BME280;5374;42.742;23.266;2023-01-31T11:12:16;95162.22;;;6.48;100.00
10652;BME280;5374;42.742;23.266;2023-01-31T11:15:05;95163.94;;;6.43;100.00
10652;BME280;5374;42.742;23.266;2023-01-31T11:17:56;95175.41;;;6.37;100.00
10652;BME280;5374;42.742;23.266;2023-01-31T11:20:46;95178.59;;;6.15;100.00
10652;BME280;5374;42.742;23.266;2023-01-31T11:23:34;95166.16;;;5.81;100.00
10652;BME280;5374;42.742;23.266;2023-01-31T11:26:30;95177.03;;;5.73;100.00
10652;BME280;5374;42.742;23.266;2023-01-31T11:29:21;95167.31;;;5.43;100.00
10652;BME280;5374;42.742;23.266;2023-01-31T11:32:17;95181.44;;;5.19;100.00
10652;BME280;5374;42.742;23.266;2023-01-31T11:35:21;95178.94;;;5.06;100.00
10652;BME280;5374;42.742;23.266;2023-01-31T11:38:24;95181.75;;;4.93;100.00
10652;BME280;5374;42.742;23.266;2023-01-31T11:41:29;95164.28;;;4.62;100.00
10652;BME280;5374;42.742;23.266;2023-01-31T11:44:19;95166.41;;;4.53;100.00
10652;BME280;5374;42.742;23.266;2023-01-31T11:47:11;95162.69;;;4.42;100.00
10652;BME280;5374;42.742;23.266;2023-01-31T11:50:00;95168.22;;;4.53;100.00
10652;BME280;5374;42.742;23.266;2023-01-31T11:52:54;95155.81;;;4.41;100.00
10652;BME280;5374;42.742;23.266;2023-01-31T11:55:43;95171.16;;;4.44;100.00
10652;BME280;5374;42.742;23.266;2023-01-31T11:58:36;95165.81;;;4.33;100.00
10652;BME280;5374;42.742;23.266;2023-01-31T12:01:25;95161.28;;;4.22;100.00
10652;BME280;5374;42.742;23.266;2023-01-31T12:04:15;95162.66;;;4.24;100.00
10652;BME280;5374;42.742;23.266;2023-01-31T12:07:05;95155.50;;;4.31;100.00
10652;BME280;5374;42.742;23.266;2023-01-31T12:09:56;95161.53;;;4.13;100.00
10652;BME280;5374;42.742;23.266;2023-01-31T12:12:44;95134.75;;;4.05;100.00
10652;BME280;5374;42.742;23.266;2023-01-31T12:15:32;95160.09;;;4.18;100.00
10652;BME280;5374;42.742;23.266;2023-01-31T12:21:41;95151.75;;;4.02;100.00
10652;BME280;5374;42.742;23.266;2023-01-31T12:24:41;95160.00;;;4.06;100.00
10652;BME280;5374;42.742;23.266;2023-01-31T12:27:42;95156.59;;;4.05;100.00
10652;BME280;5374;42.742;23.266;2023-01-31T12:31:12;95158.47;;;4.17;100.00
10652;BME280;5374;42.742;23.266;2023-01-31T12:34:17;95160.22;;;4.04;100.00
10652;BME280;5374;42.742;23.266;2023-01-31T12:37:22;95164.22;;;4.07;100.00
10652;BME280;5374;42.742;23.266;2023-01-31T12:40:32;95161.06;;;3.98;100.00
10652;BME280;5374;42.742;23.266;2023-01-31T12:43:47;95148.78;;;3.92;100.00
10652;BME280;5374;42.742;23.266;2023-01-31T12:46:54;95142.53;;;3.93;100.00
10652;BME280;5374;42.742;23.266;2023-01-31T12:50:11;95157.22;;;4.01;100.00
10652;BME280;5374;42.742;23.266;2023-01-31T12:53:14;95150.56;;;3.98;100.00
10652;BME280;5374;42.742;23.266;2023-01-31T12:56:29;95156.41;;;4.00;100.00
10652;BME280;5374;42.742;23.266;2023-01-31T12:59:29;95155.41;;;4.01;100.00
10652;BME280;5374;42.742;23.266;2023-01-31T13:02:33;95147.34;;;3.96;100.00
10652;BME280;5374;42.742;23.266;2023-01-31T13:05:26;95150.88;;;4.08;100.00
10652;BME280;5374;42.742;23.266;2023-01-31T13:08:17;95155.84;;;4.17;100.00
10652;BME280;5374;42.742;23.266;2023-01-31T13:11:08;95155.28;;;4.15;100.00
10652;BME280;5374;42.742;23.266;2023-01-31T13:14:00;95162.13;;;4.16;100.00
10652;BME280;5374;42.742;23.266;2023-01-31T13:16:52;95158.19;;;4.06;100.00
10652;BME280;5374;42.742;23.266;2023-01-31T13:19:47;95160.56;;;4.08;100.00
10652;BME280;5374;42.742;23.266;2023-01-31T13:22:40;95171.56;;;4.23;100.00
10652;BME280;5374;42.742;23.266;2023-01-31T13:25:36;95171.44;;;4.36;100.00
10652;BME280;5374;42.742;23.266;2023-01-31T13:28:26;95156.41;;;4.25;100.00
10652;BME280;5374;42.742;23.266;2023-01-31T13:31:19;95174.50;;;4.33;100.00
10652;BME280;5374;42.742;23.266;2023-01-31T13:34:13;95176.75;;;4.30;100.00
10652;BME280;5374;42.742;23.266;2023-01-31T13:37:05;95183.31;;;4.21;100.00
10652;BME280;5374;42.742;23.266;2023-01-31T13:39:58;95169.59;;;4.19;100.00
10652;BME280;5374;42.742;23.266;2023-01-31T13:42:48;95174.56;;;4.27;100.00
10652;BME280;5374;42.742;23.266;2023-01-31T13:45:41;95183.75;;;4.18;100.00
10652;BME280;5374;42.742;23.266;2023-01-31T13:48:35;95176.25;;;4.21;100.00
10652;BME280;5374;42.742;23.266;2023-01-31T13:51:28;95127.31;;;3.77;100.00
10652;BME280;5374;42.742;23.266;2023-01-31T13:54:23;95182.28;;;4.22;100.00
10652;BME280;5374;42.742;23.266;2023-01-31T13:57:22;95187.09;;;4.06;100.00
10652;BME280;5374;42.742;23.266;2023-01-31T14:00:29;95182.59;;;4.07;100.00
10652;BME280;5374;42.742;23.266;2023-01-31T14:03:20;95181.84;;;4.06;100.00
10652;BME280;5374;42.742;23.266;2023-01-31T14:06:07;95192.97;;;4.02;100.00
10652;BME280;5374;42.742;23.266;2023-01-31T14:08:57;95195.88;;;3.94;100.00
10652;BME280;5374;42.742;23.266;2023-01-31T14:11:48;95181.28;;;3.73;100.00
10652;BME280;5374;42.742;23.266;2023-01-31T14:14:43;95189.16;;;3.73;100.00
10652;BME280;5374;42.742;23.266;2023-01-31T14:17:56;95198.81;;;3.79;100.00
10652;BME280;5374;42.742;23.266;2023-01-31T14:20:44;95198.38;;;3.82;100.00
10652;BME280;5374;42.742;23.266;2023-01-31T14:23:42;95198.03;;;3.72;100.00
10652;BME280;5374;42.742;23.266;2023-01-31T14:26:33;95191.66;;;3.61;100.00
10652;BME280;5374;42.742;23.266;2023-01-31T14:29:25;95189.59;;;3.63;100.00
10652;BME280;5374;42.742;23.266;2023-01-31T14:32:14;95188.25;;;3.61;100.00
10652;BME280;5374;42.742;23.266;2023-01-31T14:35:25;95211.88;;;3.61;100.00
10652;BME280;5374;42.742;23.266;2023-01-31T14:38:22;95212.69;;;3.55;100.00
10652;BME280;5374;42.742;23.266;2023-01-31T14:41:18;95212.75;;;3.41;100.00
10652;BME280;5374;42.742;23.266;2023-01-31T14:44:19;95221.22;;;3.43;100.00
10652;BME280;5374;42.742;23.266;2023-01-31T14:47:22;95193.06;;;3.26;100.00
10652;BME280;5374;42.742;23.266;2023-01-31T14:50:35;95218.28;;;3.33;100.00
10652;BME280;5374;42.742;23.266;2023-01-31T14:56:52;95233.47;;;3.18;100.00
10652;BME280;5374;42.742;23.266;2023-01-31T14:59:45;95221.44;;;3.04;100.00
10652;BME280;5374;42.742;23.266;2023-01-31T15:02:47;95240.31;;;3.19;100.00
10652;BME280;5374;42.742;23.266;2023-01-31T15:05:41;95237.16;;;3.04;100.00
10652;BME280;5374;42.742;23.266;2023-01-31T15:08:35;95237.97;;;3.04;100.00
10652;BME280;5374;42.742;23.266;2023-01-31T15:11:38;95251.47;;;3.08;100.00
10652;BME280;5374;42.742;23.266;2023-01-31T15:14:29;95239.41;;;2.94;100.00
10652;BME280;5374;42.742;23.266;2023-01-31T15:17:20;95223.94;;;2.79;100.00